Time;durP1;ratioP1;P1;durP2;ratioP2;P2;SDS_P1;SDS_P2;PMS_P1;PMS_P2;Temp;Humidity;BMP_temperature;BMP_pressure;BME280_temperature;BME280_humidity;BME280_pressure;Samples;Min_cycle;Max_cycle;Signal;HPM_P1;HPM_P2
2024/01/24 00:00:18;;;;;;;74.47;70.03;;;;;;;;;;5016958;28;20429;-73
2024/01/24 00:02:48;;;;;;;65.68;61.63;;;;;;;;;;4998036;28;20459;-73
2024/01/24 00:05:16;;;;;;;72.47;68.28;;;;;;;;;;4994266;28;20430;-72
2024/01/24 00:07:43;;;;;;;73.75;69.55;;;;;;;;;;5000125;28;20467;-72
2024/01/24 00:10:11;;;;;;;73.15;68.85;;;;;;;;;;4996010;28;20436;-72
2024/01/24 00:12:38;;;;;;;78.47;74.30;;;;;;;;;;5002082;28;20432;-72
2024/01/24 00:15:06;;;;;;;64.30;60.70;;;;;;;;;;5006053;28;20433;-72
2024/01/24 00:17:33;;;;;;;67.57;63.88;;;;;;;;;;5008016;28;20432;-72
2024/01/24 00:20:01;;;;;;;58.53;54.85;;;;;;;;;;4987501;28;20436;-69
2024/01/24 00:22:28;;;;;;;50.28;47.08;;;;;;;;;;5002739;28;20434;-73
2024/01/24 00:24:55;;;;;;;56.20;52.30;;;;;;;;;;5006790;28;20597;-71
2024/01/24 00:27:22;;;;;;;66.57;62.63;;;;;;;;;;5006479;28;20433;-71
2024/01/24 00:29:50;;;;;;;67.82;63.70;;;;;;;;;;4999272;28;20427;-71
2024/01/24 00:32:17;;;;;;;60.33;56.67;;;;;;;;;;5003478;28;20428;-72
2024/01/24 00:34:44;;;;;;;60.38;56.58;;;;;;;;;;5009497;28;20526;-72
2024/01/24 00:37:13;;;;;;;64.88;61.00;;;;;;;;;;5002171;28;20438;-72
2024/01/24 00:39:41;;;;;;;66.57;62.72;;;;;;;;;;5007566;28;20499;-73
2024/01/24 00:42:08;;;;;;;74.90;70.80;;;;;;;;;;5007158;28;20878;-72
2024/01/24 00:44:36;;;;;;;70.68;66.78;;;;;;;;;;5000346;28;20440;-72
2024/01/24 00:47:04;;;;;;;57.58;53.90;;;;;;;;;;5017330;28;20472;-72
2024/01/24 00:49:31;;;;;;;62.33;58.65;;;;;;;;;;4997966;28;20430;-71
2024/01/24 00:52:03;;;;;;;59.67;56.08;;;;;;;;;;4996431;28;20439;-71
2024/01/24 00:54:30;;;;;;;65.03;61.20;;;;;;;;;;5016578;28;20774;-71
2024/01/24 00:56:58;;;;;;;61.97;58.25;;;;;;;;;;5011645;28;20793;-71
2024/01/24 00:59:25;;;;;;;70.22;66.07;;;;;;;;;;5011841;28;21165;-72
2024/01/24 01:01:55;;;;;;;64.32;60.55;;;;;;;;;;5004454;28;20511;-72
2024/01/24 01:04:24;;;;;;;65.03;61.15;;;;;;;;;;4996237;28;20519;-72
2024/01/24 01:06:52;;;;;;;68.72;64.75;;;;;;;;;;4999173;28;20438;-72
2024/01/24 01:09:19;;;;;;;72.43;68.22;;;;;;;;;;5001135;28;20469;-71
2024/01/24 01:11:46;;;;;;;69.80;65.72;;;;;;;;;;5005644;28;20442;-71
2024/01/24 01:14:13;;;;;;;71.25;67.05;;;;;;;;;;5005228;28;20430;-72
2024/01/24 01:16:41;;;;;;;74.80;70.50;;;;;;;;;;5019077;28;20436;-72
2024/01/24 01:19:08;;;;;;;76.55;72.10;;;;;;;;;;5007101;28;20440;-71
2024/01/24 01:21:35;;;;;;;83.40;78.82;;;;;;;;;;4996791;28;20429;-71
2024/01/24 01:24:06;;;;;;;71.75;67.65;;;;;;;;;;5015962;28;20427;-71
2024/01/24 01:26:33;;;;;;;77.18;72.65;;;;;;;;;;4982462;28;20484;-72
2024/01/24 01:29:01;;;;;;;73.57;69.28;;;;;;;;;;4996215;28;20438;-71
2024/01/24 01:31:28;;;;;;;79.75;74.70;;;;;;;;;;5023995;28;20466;-72
2024/01/24 01:33:57;;;;;;;72.43;68.20;;;;;;;;;;5005306;28;20430;-71
2024/01/24 01:36:24;;;;;;;76.25;71.78;;;;;;;;;;5005465;28;20957;-74
2024/01/24 01:38:52;;;;;;;67.25;63.22;;;;;;;;;;5000872;28;20428;-71
2024/01/24 01:41:19;;;;;;;75.05;70.65;;;;;;;;;;4998616;28;20430;-71
2024/01/24 01:43:46;;;;;;;72.57;68.32;;;;;;;;;;5001321;28;20448;-71
2024/01/24 01:46:21;;;;;;;83.73;78.93;;;;;;;;;;5014142;28;20525;-72
2024/01/24 01:48:50;;;;;;;72.90;68.60;;;;;;;;;;5009914;28;20438;-71
2024/01/24 01:51:18;;;;;;;75.13;70.70;;;;;;;;;;5021064;28;20954;-71
2024/01/24 01:53:46;;;;;;;76.70;72.25;;;;;;;;;;5002018;28;20472;-71
2024/01/24 01:56:16;;;;;;;83.67;78.63;;;;;;;;;;5001257;28;20964;-71
2024/01/24 01:58:44;;;;;;;75.07;70.70;;;;;;;;;;5008686;28;20504;-71
2024/01/24 02:01:11;;;;;;;75.35;70.95;;;;;;;;;;5005430;28;20823;-71
2024/01/24 02:03:38;;;;;;;75.50;71.10;;;;;;;;;;5028243;28;20450;-72
2024/01/24 02:06:07;;;;;;;87.00;82.07;;;;;;;;;;5001618;28;20445;-72
2024/01/24 02:08:37;;;;;;;94.90;89.68;;;;;;;;;;5010051;28;20448;-72
2024/01/24 02:11:04;;;;;;;95.63;90.30;;;;;;;;;;5012475;28;20474;-72
2024/01/24 02:13:32;;;;;;;115.18;109.15;;;;;;;;;;5019470;28;20475;-72
2024/01/24 02:15:59;;;;;;;144.43;137.10;;;;;;;;;;5023643;28;20434;-72
2024/01/24 02:18:37;;;;;;;149.98;142.52;;;;;;;;;;5020006;28;20440;-72
2024/01/24 02:21:04;;;;;;;144.40;137.13;;;;;;;;;;5006165;28;20430;-72
2024/01/24 02:23:35;;;;;;;136.15;129.35;;;;;;;;;;5005444;28;20470;-71
2024/01/24 02:26:02;;;;;;;128.40;122.03;;;;;;;;;;5018274;28;20507;-72
2024/01/24 02:28:29;;;;;;;121.95;115.75;;;;;;;;;;5006745;28;20479;-72
2024/01/24 02:30:56;;;;;;;122.63;116.32;;;;;;;;;;4998032;28;20525;-72
2024/01/24 02:33:23;;;;;;;115.20;109.40;;;;;;;;;;5004194;28;20859;-72
2024/01/24 02:35:51;;;;;;;128.35;121.75;;;;;;;;;;5012050;28;20439;-71
2024/01/24 02:38:18;;;;;;;142.02;134.85;;;;;;;;;;5010954;28;20436;-71
2024/01/24 02:40:46;;;;;;;147.00;139.70;;;;;;;;;;5006268;28;20449;-72
2024/01/24 02:43:13;;;;;;;140.48;133.40;;;;;;;;;;5002658;28;20796;-71
2024/01/24 02:45:40;;;;;;;149.32;141.82;;;;;;;;;;5005321;28;20528;-71
2024/01/24 02:48:07;;;;;;;143.77;136.68;;;;;;;;;;5015193;28;20504;-71
2024/01/24 02:50:34;;;;;;;117.22;111.25;;;;;;;;;;5008649;28;20428;-71
2024/01/24 02:53:02;;;;;;;126.38;119.78;;;;;;;;;;5015043;28;20438;-71
2024/01/24 02:55:29;;;;;;;108.13;102.43;;;;;;;;;;4999628;28;20437;-71
2024/01/24 02:57:56;;;;;;;101.55;96.47;;;;;;;;;;4998436;28;20445;-71
2024/01/24 03:00:28;;;;;;;97.68;92.55;;;;;;;;;;5005062;28;20908;-70
2024/01/24 03:02:56;;;;;;;124.50;118.20;;;;;;;;;;5006181;28;20436;-71
2024/01/24 03:05:23;;;;;;;112.47;106.90;;;;;;;;;;5040265;28;20426;-71
2024/01/24 03:07:53;;;;;;;106.05;100.65;;;;;;;;;;5012064;28;20506;-70
2024/01/24 03:10:21;;;;;;;109.72;104.13;;;;;;;;;;5011936;28;20436;-71
2024/01/24 03:12:51;;;;;;;96.43;91.57;;;;;;;;;;5003279;28;20450;-71
2024/01/24 03:15:18;;;;;;;92.60;87.90;;;;;;;;;;5006917;28;20464;-71
2024/01/24 03:17:45;;;;;;;70.05;66.30;;;;;;;;;;5013733;28;20439;-71
2024/01/24 03:20:13;;;;;;;96.07;91.15;;;;;;;;;;5017171;28;20430;-71
2024/01/24 03:22:44;;;;;;;112.55;106.85;;;;;;;;;;5016433;28;20884;-71
2024/01/24 03:25:15;;;;;;;129.55;122.75;;;;;;;;;;4992067;28;20525;-71
2024/01/24 03:27:42;;;;;;;115.28;109.43;;;;;;;;;;5013390;28;20480;-71
2024/01/24 03:30:13;;;;;;;114.70;108.80;;;;;;;;;;4997436;28;20446;-71
2024/01/24 03:32:40;;;;;;;103.63;98.50;;;;;;;;;;4996685;28;20443;-71
2024/01/24 03:35:10;;;;;;;89.05;84.50;;;;;;;;;;5017100;28;20467;-71
2024/01/24 03:37:37;;;;;;;90.28;85.70;;;;;;;;;;5029548;28;20452;-70
2024/01/24 03:40:05;;;;;;;161.18;43.15;;;;;;;;;;5001140;28;20464;-71
2024/01/24 03:42:35;;;;;;;29.00;27.45;;;;;;;;;;5011217;28;20776;-71
2024/01/24 03:45:02;;;;;;;33.92;32.10;;;;;;;;;;4999348;28;20930;-71
2024/01/24 03:47:29;;;;;;;47.28;44.88;;;;;;;;;;5000546;28;20441;-71
2024/01/24 03:49:56;;;;;;;56.95;53.92;;;;;;;;;;5013376;28;20436;-70
2024/01/24 03:52:23;;;;;;;72.63;68.97;;;;;;;;;;5001787;28;20444;-71
2024/01/24 03:54:50;;;;;;;61.88;58.60;;;;;;;;;;5009114;28;20436;-71
2024/01/24 03:57:18;;;;;;;67.95;64.50;;;;;;;;;;5002426;28;20445;-71
2024/01/24 03:59:45;;;;;;;64.25;60.90;;;;;;;;;;5008423;28;20448;-71
2024/01/24 04:02:12;;;;;;;69.85;66.43;;;;;;;;;;5012671;28;20506;-71
2024/01/24 04:04:40;;;;;;;85.43;80.93;;;;;;;;;;5017954;28;20427;-71
2024/01/24 04:07:07;;;;;;;121.60;115.50;;;;;;;;;;5005348;28;21002;-71
2024/01/24 04:09:35;;;;;;;147.63;140.23;;;;;;;;;;5019898;28;20436;-71
2024/01/24 04:12:04;;;;;;;152.35;144.80;;;;;;;;;;5004976;28;20434;-71
2024/01/24 04:14:31;;;;;;;145.93;138.68;;;;;;;;;;5011543;28;20433;-69
2024/01/24 04:16:59;;;;;;;143.77;136.70;;;;;;;;;;5006274;28;20459;-71
2024/01/24 04:19:26;;;;;;;146.93;139.57;;;;;;;;;;5010814;28;20460;-71
2024/01/24 04:21:53;;;;;;;140.10;133.00;;;;;;;;;;5007946;28;20483;-70
2024/01/24 04:24:20;;;;;;;142.75;135.57;;;;;;;;;;5009019;28;20464;-70
2024/01/24 04:26:48;;;;;;;137.23;130.32;;;;;;;;;;5016104;28;20815;-70
2024/01/24 04:29:16;;;;;;;139.63;132.73;;;;;;;;;;5016101;28;20433;-70
2024/01/24 04:31:44;;;;;;;142.48;135.45;;;;;;;;;;5012878;28;20436;-69
2024/01/24 04:34:11;;;;;;;137.10;130.20;;;;;;;;;;5006053;28;20440;-70
2024/01/24 04:36:38;;;;;;;107.68;102.13;;;;;;;;;;5002740;28;20438;-72
2024/01/24 04:39:05;;;;;;;61.13;57.42;;;;;;;;;;4997955;28;20455;-71
2024/01/24 04:41:33;;;;;;;69.15;65.07;;;;;;;;;;5009355;28;20423;-71
2024/01/24 04:44:03;;;;;;;65.87;61.87;;;;;;;;;;5008138;28;20527;-71
2024/01/24 04:46:31;;;;;;;68.53;64.38;;;;;;;;;;5001100;28;21274;-70
2024/01/24 04:48:58;;;;;;;61.15;57.47;;;;;;;;;;5030167;28;20795;-70
2024/01/24 04:51:27;;;;;;;45.03;42.27;;;;;;;;;;5010952;28;20441;-70
2024/01/24 04:53:55;;;;;;;45.63;42.92;;;;;;;;;;5031179;28;20438;-70
2024/01/24 04:56:22;;;;;;;55.97;52.58;;;;;;;;;;5017992;28;20443;-70
2024/01/24 04:58:49;;;;;;;60.05;56.35;;;;;;;;;;5019328;28;21111;-71
2024/01/24 05:01:17;;;;;;;51.95;48.78;;;;;;;;;;5007130;28;21054;-71
2024/01/24 05:03:44;;;;;;;61.00;57.27;;;;;;;;;;5003802;28;20433;-71
2024/01/24 05:06:12;;;;;;;56.33;53.05;;;;;;;;;;4992797;28;20434;-70
2024/01/24 05:08:40;;;;;;;57.50;54.20;;;;;;;;;;5007076;28;20435;-72
2024/01/24 05:11:07;;;;;;;48.83;45.90;;;;;;;;;;5007267;28;20428;-71
2024/01/24 05:13:37;;;;;;;61.55;57.85;;;;;;;;;;5009116;28;20877;-71
2024/01/24 05:16:04;;;;;;;52.50;49.25;;;;;;;;;;5005050;28;20922;-71
2024/01/24 05:18:32;;;;;;;62.33;58.60;;;;;;;;;;5024920;28;20489;-71
2024/01/24 05:21:00;;;;;;;56.70;53.33;;;;;;;;;;5008637;28;20431;-71
2024/01/24 05:23:27;;;;;;;56.17;52.78;;;;;;;;;;5025079;28;20451;-71
2024/01/24 05:25:54;;;;;;;39.53;37.03;;;;;;;;;;5011013;28;20509;-71
2024/01/24 05:28:21;;;;;;;46.85;43.95;;;;;;;;;;5027084;28;20438;-71
2024/01/24 05:30:48;;;;;;;50.88;47.75;;;;;;;;;;5028120;28;20431;-71
2024/01/24 05:33:16;;;;;;;56.50;53.07;;;;;;;;;;5006841;28;20432;-70
2024/01/24 05:35:45;;;;;;;51.35;48.15;;;;;;;;;;5021965;28;20445;-71
2024/01/24 05:38:16;;;;;;;51.07;47.97;;;;;;;;;;4997929;28;20430;-70
2024/01/24 05:40:43;;;;;;;57.33;53.85;;;;;;;;;;4997344;28;20435;-71
2024/01/24 05:43:10;;;;;;;47.60;44.65;;;;;;;;;;5004984;28;20995;-71
2024/01/24 05:45:37;;;;;;;44.30;41.38;;;;;;;;;;5001293;28;20434;-71
2024/01/24 05:48:05;;;;;;;59.37;55.83;;;;;;;;;;4983734;28;20928;-71
2024/01/24 05:50:33;;;;;;;58.88;55.70;;;;;;;;;;5020768;28;20447;-71
2024/01/24 05:53:01;;;;;;;56.72;53.25;;;;;;;;;;5015166;28;20438;-71
2024/01/24 05:55:28;;;;;;;53.95;50.60;;;;;;;;;;5007652;28;20514;-71
2024/01/24 05:57:56;;;;;;;48.95;45.83;;;;;;;;;;5001863;28;20460;-71
2024/01/24 06:00:23;;;;;;;55.30;51.95;;;;;;;;;;4990586;28;20442;-71
2024/01/24 06:02:51;;;;;;;53.42;50.17;;;;;;;;;;5003648;28;20442;-71
2024/01/24 06:05:19;;;;;;;56.20;52.80;;;;;;;;;;5006811;28;21048;-71
2024/01/24 06:07:49;;;;;;;49.65;46.60;;;;;;;;;;4995665;28;20436;-72
2024/01/24 06:10:17;;;;;;;45.42;42.55;;;;;;;;;;4990952;28;21076;-71
2024/01/24 06:12:44;;;;;;;55.67;52.33;;;;;;;;;;5007272;28;20580;-70
2024/01/24 06:15:12;;;;;;;53.75;50.55;;;;;;;;;;5004485;28;20448;-70
2024/01/24 06:17:39;;;;;;;47.97;45.05;;;;;;;;;;4996638;28;20438;-71
2024/01/24 06:20:09;;;;;;;47.60;44.72;;;;;;;;;;5010820;28;20434;-71
2024/01/24 06:22:36;;;;;;;51.28;48.30;;;;;;;;;;5008045;28;20437;-70
2024/01/24 06:25:07;;;;;;;46.13;43.38;;;;;;;;;;5000746;28;20909;-70
2024/01/24 06:27:35;;;;;;;48.97;46.08;;;;;;;;;;5002502;28;20955;-71
2024/01/24 06:30:04;;;;;;;51.03;48.20;;;;;;;;;;5023553;28;20525;-71
2024/01/24 06:32:48;;;;;;;56.42;53.13;;;;;;;;;;5012643;28;20784;-71
2024/01/24 06:35:18;;;;;;;61.10;57.45;;;;;;;;;;5010680;28;20431;-71
2024/01/24 06:37:45;;;;;;;61.42;57.65;;;;;;;;;;5014691;28;20439;-71
2024/01/24 06:40:14;;;;;;;70.33;66.30;;;;;;;;;;5008099;28;20445;-71
2024/01/24 06:42:45;;;;;;;56.15;52.83;;;;;;;;;;5017654;28;20458;-71
2024/01/24 06:45:12;;;;;;;69.80;65.75;;;;;;;;;;5010742;28;20517;-71
2024/01/24 06:47:39;;;;;;;65.43;61.60;;;;;;;;;;5024924;28;20460;-70
2024/01/24 06:50:08;;;;;;;63.25;59.60;;;;;;;;;;4999749;28;20498;-70
2024/01/24 06:52:35;;;;;;;62.42;58.75;;;;;;;;;;5006489;28;20498;-71
2024/01/24 06:55:03;;;;;;;68.20;64.32;;;;;;;;;;5004554;28;20430;-71
2024/01/24 06:57:30;;;;;;;73.35;69.22;;;;;;;;;;5001491;28;20440;-70
2024/01/24 06:59:57;;;;;;;67.50;63.47;;;;;;;;;;5006486;28;20473;-71
2024/01/24 07:02:27;;;;;;;76.53;72.13;;;;;;;;;;5020268;28;20482;-70
2024/01/24 07:04:58;;;;;;;69.40;65.50;;;;;;;;;;5005040;28;21330;-71
2024/01/24 07:07:29;;;;;;;73.90;69.63;;;;;;;;;;5011244;28;21099;-71
2024/01/24 07:09:56;;;;;;;66.13;62.17;;;;;;;;;;5007546;28;20448;-71
2024/01/24 07:12:26;;;;;;;58.63;55.08;;;;;;;;;;4996418;28;20488;-71
2024/01/24 07:14:53;;;;;;;63.30;59.53;;;;;;;;;;5001918;28;20852;-71
2024/01/24 07:17:20;;;;;;;89.07;83.85;;;;;;;;;;4986381;28;20531;-70
2024/01/24 07:19:50;;;;;;;72.53;68.17;;;;;;;;;;5006683;28;20972;-71
2024/01/24 07:22:18;;;;;;;72.78;68.50;;;;;;;;;;4995397;28;20467;-71
2024/01/24 07:24:45;;;;;;;71.35;67.15;;;;;;;;;;5003080;28;20427;-71
2024/01/24 07:27:13;;;;;;;71.45;67.28;;;;;;;;;;4994149;28;20455;-71
2024/01/24 07:29:40;;;;;;;69.72;65.68;;;;;;;;;;4991301;28;20487;-71
2024/01/24 07:32:07;;;;;;;64.32;60.55;;;;;;;;;;4994454;28;20860;-71
2024/01/24 07:34:38;;;;;;;79.22;74.68;;;;;;;;;;5011410;28;20869;-70
2024/01/24 07:37:07;;;;;;;77.03;72.68;;;;;;;;;;4999671;28;20454;-71
2024/01/24 07:39:35;;;;;;;66.72;62.72;;;;;;;;;;5008138;28;20524;-71
2024/01/24 07:42:02;;;;;;;68.33;64.27;;;;;;;;;;5012084;28;20538;-70
2024/01/24 07:44:29;;;;;;;76.50;72.10;;;;;;;;;;5009700;28;20440;-71
2024/01/24 07:47:05;;;;;;;75.15;70.78;;;;;;;;;;5016530;28;20432;-71
2024/01/24 07:49:35;;;;;;;63.45;59.58;;;;;;;;;;5009376;28;20427;-72
2024/01/24 07:52:07;;;;;;;71.50;67.33;;;;;;;;;;5005793;28;20582;-71
2024/01/24 07:54:34;;;;;;;66.82;62.80;;;;;;;;;;5019960;28;20426;-70
2024/01/24 07:57:03;;;;;;;72.65;68.40;;;;;;;;;;5006188;28;20494;-70
2024/01/24 07:59:31;;;;;;;70.32;66.10;;;;;;;;;;4999582;28;20747;-71
2024/01/24 08:01:58;;;;;;;72.63;68.38;;;;;;;;;;4996107;28;20433;-70
2024/01/24 08:04:26;;;;;;;71.88;67.60;;;;;;;;;;5009774;28;20432;-70
2024/01/24 08:06:54;;;;;;;69.25;65.15;;;;;;;;;;5009529;28;21142;-70
2024/01/24 08:09:21;;;;;;;67.78;63.88;;;;;;;;;;5004851;28;20445;-71
2024/01/24 08:11:49;;;;;;;69.77;65.83;;;;;;;;;;5010256;28;20737;-70
2024/01/24 08:14:16;;;;;;;53.20;50.00;;;;;;;;;;5008931;28;20436;-70
2024/01/24 08:17:04;;;;;;;55.78;52.38;;;;;;;;;;5001110;28;20426;-70
2024/01/24 08:19:31;;;;;;;72.82;68.57;;;;;;;;;;5005385;28;20428;-70
2024/01/24 08:21:59;;;;;;;59.35;55.85;;;;;;;;;;5007598;28;20444;-70
2024/01/24 08:24:26;;;;;;;61.70;58.10;;;;;;;;;;5009703;28;20860;-69
2024/01/24 08:26:54;;;;;;;60.73;57.13;;;;;;;;;;5023086;28;20473;-70
2024/01/24 08:29:21;;;;;;;74.75;70.13;;;;;;;;;;5030209;28;20430;-69
2024/01/24 08:32:05;;;;;;;86.37;81.40;;;;;;;;;;5002816;28;20934;-69
2024/01/24 08:34:35;;;;;;;80.93;76.25;;;;;;;;;;5006607;28;20511;-69
2024/01/24 08:37:05;;;;;;;90.18;84.97;;;;;;;;;;5007267;28;20434;-70
2024/01/24 08:39:35;;;;;;;87.82;82.78;;;;;;;;;;5006165;28;20432;-69
2024/01/24 08:42:08;;;;;;;98.47;92.78;;;;;;;;;;5038360;28;20429;-70
2024/01/24 08:44:39;;;;;;;96.30;90.67;;;;;;;;;;5018659;28;20506;-69
2024/01/24 08:47:06;;;;;;;98.05;92.60;;;;;;;;;;5018980;28;20431;-69
2024/01/24 08:49:33;;;;;;;99.72;93.97;;;;;;;;;;5005671;28;20509;-69
2024/01/24 08:52:00;;;;;;;94.03;88.37;;;;;;;;;;4989421;28;20440;-70
2024/01/24 08:54:28;;;;;;;88.73;83.43;;;;;;;;;;4998661;28;21072;-71
2024/01/24 08:56:56;;;;;;;95.70;90.15;;;;;;;;;;4991506;28;20434;-70
2024/01/24 08:59:23;;;;;;;100.15;94.32;;;;;;;;;;5005371;28;20594;-70
2024/01/24 09:01:55;;;;;;;106.75;100.78;;;;;;;;;;5001338;28;20798;-70
2024/01/24 09:04:22;;;;;;;101.35;95.57;;;;;;;;;;4981841;28;20565;-70
2024/01/24 09:06:49;;;;;;;82.78;78.00;;;;;;;;;;4995862;28;20430;-69
2024/01/24 09:09:18;;;;;;;70.82;66.43;;;;;;;;;;5007375;28;20887;-71
2024/01/24 09:11:46;;;;;;;74.88;70.50;;;;;;;;;;4999561;28;20440;-70
2024/01/24 09:14:23;;;;;;;95.55;90.32;;;;;;;;;;4993584;28;20556;-71
2024/01/24 09:16:51;;;;;;;85.28;80.30;;;;;;;;;;4996241;28;20513;-71
2024/01/24 09:19:18;;;;;;;77.77;73.33;;;;;;;;;;4990742;28;20451;-71
2024/01/24 09:21:46;;;;;;;69.37;65.07;;;;;;;;;;4999033;28;20446;-71
2024/01/24 09:24:17;;;;;;;77.15;72.63;;;;;;;;;;4999994;28;20903;-71
2024/01/24 09:26:44;;;;;;;86.50;81.57;;;;;;;;;;5014838;28;20995;-70
2024/01/24 09:29:12;;;;;;;81.57;77.05;;;;;;;;;;4998146;28;20426;-71
2024/01/24 09:31:46;;;;;;;86.90;81.32;;;;;;;;;;5006861;28;20843;-72
2024/01/24 09:34:13;;;;;;;81.88;77.13;;;;;;;;;;4988193;28;20526;-71
2024/01/24 09:36:41;;;;;;;76.50;72.13;;;;;;;;;;4999615;28;20432;-70
2024/01/24 09:39:09;;;;;;;84.45;79.20;;;;;;;;;;4990182;28;20441;-71
2024/01/24 09:41:41;;;;;;;75.15;70.63;;;;;;;;;;5002858;28;20433;-72
2024/01/24 09:44:09;;;;;;;90.10;84.60;;;;;;;;;;4998623;28;21025;-70
2024/01/24 09:46:42;;;;;;;96.03;90.50;;;;;;;;;;5012886;28;20431;-70
2024/01/24 09:49:14;;;;;;;77.23;72.43;;;;;;;;;;5015146;28;20444;-71
2024/01/24 09:51:42;;;;;;;73.38;68.93;;;;;;;;;;5003601;28;20517;-72
2024/01/24 09:54:13;;;;;;;89.80;84.53;;;;;;;;;;5008691;28;20436;-70
2024/01/24 09:56:40;;;;;;;96.30;90.70;;;;;;;;;;5016974;28;20920;-72
2024/01/24 09:59:08;;;;;;;83.85;78.85;;;;;;;;;;5016502;28;20429;-71
2024/01/24 10:01:36;;;;;;;90.95;85.82;;;;;;;;;;5007199;28;20423;-71
2024/01/24 10:04:03;;;;;;;90.00;84.45;;;;;;;;;;5015445;28;21431;-70
2024/01/24 10:06:31;;;;;;;82.88;77.38;;;;;;;;;;5004105;28;20511;-70
2024/01/24 10:08:59;;;;;;;84.95;79.80;;;;;;;;;;5017341;28;20947;-71
2024/01/24 10:11:27;;;;;;;80.13;75.22;;;;;;;;;;5014332;28;20427;-71
2024/01/24 10:13:57;;;;;;;71.88;67.32;;;;;;;;;;5035495;28;20487;-71
2024/01/24 10:16:27;;;;;;;83.20;78.33;;;;;;;;;;5009364;28;20433;-71
2024/01/24 10:18:55;;;;;;;70.55;64.57;;;;;;;;;;5006494;28;20433;-72
2024/01/24 10:21:23;;;;;;;79.50;75.13;;;;;;;;;;5013615;28;20953;-72
2024/01/24 10:23:59;;;;;;;73.43;69.17;;;;;;;;;;5014743;28;20503;-70
2024/01/24 10:26:26;;;;;;;91.32;86.20;;;;;;;;;;5022252;28;20500;-72
2024/01/24 10:28:54;;;;;;;91.13;85.47;;;;;;;;;;5036195;28;21159;-71
2024/01/24 10:31:24;;;;;;;86.63;81.10;;;;;;;;;;5012696;28;20436;-72
2024/01/24 10:33:55;;;;;;;85.40;80.63;;;;;;;;;;5016936;28;20522;-71
2024/01/24 10:36:23;;;;;;;92.00;86.78;;;;;;;;;;5013954;28;20941;-71
2024/01/24 10:39:05;;;;;;;104.05;98.25;;;;;;;;;;5012964;28;20458;-71
2024/01/24 10:41:40;;;;;;;106.40;100.33;;;;;;;;;;5015503;28;20800;-71
2024/01/24 10:44:09;;;;;;;87.55;81.78;;;;;;;;;;5032799;28;20894;-71
2024/01/24 10:46:38;;;;;;;99.40;93.18;;;;;;;;;;5013450;28;20435;-71
2024/01/24 10:49:12;;;;;;;110.53;103.88;;;;;;;;;;5010464;28;20433;-71
2024/01/24 10:51:40;;;;;;;111.13;104.70;;;;;;;;;;5006115;28;20433;-71
2024/01/24 10:54:07;;;;;;;87.97;82.80;;;;;;;;;;5021491;28;20463;-71
2024/01/24 10:56:35;;;;;;;76.57;71.60;;;;;;;;;;5008534;28;20486;-72
2024/01/24 10:59:05;;;;;;;88.27;82.77;;;;;;;;;;5005037;28;20430;-72
2024/01/24 11:01:34;;;;;;;81.55;76.45;;;;;;;;;;5012735;28;20422;-71
2024/01/24 11:04:04;;;;;;;98.95;92.97;;;;;;;;;;5012750;28;20432;-73
2024/01/24 11:06:41;;;;;;;95.05;89.72;;;;;;;;;;5008958;28;20458;-70
2024/01/24 11:09:20;;;;;;;90.25;84.72;;;;;;;;;;5002200;28;20442;-70
2024/01/24 11:11:55;;;;;;;112.83;106.33;;;;;;;;;;5017851;28;20483;-71
2024/01/24 11:14:29;;;;;;;102.03;95.90;;;;;;;;;;5000703;28;20517;-70
2024/01/24 11:17:06;;;;;;;91.00;85.47;;;;;;;;;;5018367;28;20444;-71
2024/01/24 11:19:40;;;;;;;96.30;90.40;;;;;;;;;;5011716;28;20448;-70
2024/01/24 11:22:11;;;;;;;85.05;79.35;;;;;;;;;;5006485;28;20441;-70
2024/01/24 11:24:52;;;;;;;97.00;91.45;;;;;;;;;;5012713;28;20448;-71
2024/01/24 11:27:35;;;;;;;101.50;95.35;;;;;;;;;;5018283;28;20431;-70
2024/01/24 11:30:27;;;;;;;81.70;76.80;;;;;;;;;;5012439;28;20444;-70
2024/01/24 11:32:58;;;;;;;91.80;86.40;;;;;;;;;;5016299;28;21031;-71
2024/01/24 11:35:25;;;;;;;81.82;77.00;;;;;;;;;;5007665;28;20441;-70
2024/01/24 11:38:04;;;;;;;98.72;92.53;;;;;;;;;;5027085;28;20509;-71
2024/01/24 11:40:56;;;;;;;99.28;93.45;;;;;;;;;;5020335;28;20992;-69
2024/01/24 11:43:27;;;;;;;101.15;94.88;;;;;;;;;;5041570;28;20428;-70
2024/01/24 11:46:01;;;;;;;112.18;105.68;;;;;;;;;;5011757;28;20998;-70
2024/01/24 11:48:29;;;;;;;101.00;95.18;;;;;;;;;;5012370;28;20439;-70
2024/01/24 11:50:58;;;;;;;109.55;102.82;;;;;;;;;;5017794;28;20435;-70
2024/01/24 11:53:26;;;;;;;94.55;88.78;;;;;;;;;;5005968;28;20438;-70
2024/01/24 11:55:58;;;;;;;107.47;100.20;;;;;;;;;;5007739;28;20432;-70
2024/01/24 11:58:26;;;;;;;118.35;111.10;;;;;;;;;;5010152;28;20444;-70
2024/01/24 12:00:57;;;;;;;112.13;105.68;;;;;;;;;;5017223;28;20932;-70
2024/01/24 12:03:27;;;;;;;99.22;93.65;;;;;;;;;;5006744;28;20430;-69
2024/01/24 12:05:57;;;;;;;94.07;88.05;;;;;;;;;;5006452;28;20437;-70
2024/01/24 12:08:25;;;;;;;101.68;95.50;;;;;;;;;;5005124;28;20526;-70
2024/01/24 12:10:52;;;;;;;100.03;94.10;;;;;;;;;;4995787;28;20967;-70
2024/01/24 12:13:21;;;;;;;108.93;102.25;;;;;;;;;;5020435;28;20438;-70
2024/01/24 12:15:50;;;;;;;111.00;104.60;;;;;;;;;;5001724;28;20510;-70
2024/01/24 12:18:24;;;;;;;91.60;85.90;;;;;;;;;;5002922;28;21154;-70
2024/01/24 12:20:58;;;;;;;99.93;93.70;;;;;;;;;;5005217;28;20490;-69
2024/01/24 12:23:30;;;;;;;94.85;89.13;;;;;;;;;;5001065;28;20429;-69
2024/01/24 12:25:58;;;;;;;88.22;82.85;;;;;;;;;;5020730;28;20523;-69
2024/01/24 12:28:26;;;;;;;88.43;82.80;;;;;;;;;;4990488;28;20425;-69
2024/01/24 12:30:57;;;;;;;85.07;80.07;;;;;;;;;;5010778;28;20524;-70
2024/01/24 12:33:25;;;;;;;90.63;85.00;;;;;;;;;;5018133;28;20487;-70
2024/01/24 12:35:52;;;;;;;87.68;81.97;;;;;;;;;;5014946;28;20464;-69
2024/01/24 12:38:19;;;;;;;90.43;85.13;;;;;;;;;;5001021;28;20442;-69
2024/01/24 12:40:53;;;;;;;99.00;92.45;;;;;;;;;;4991585;28;20434;-70
2024/01/24 12:43:22;;;;;;;93.80;87.82;;;;;;;;;;4991543;28;20464;-69
2024/01/24 12:45:52;;;;;;;81.18;76.15;;;;;;;;;;4996116;28;20544;-69
2024/01/24 12:48:20;;;;;;;68.93;64.70;;;;;;;;;;5010404;28;20802;-69
2024/01/24 12:50:51;;;;;;;97.40;91.50;;;;;;;;;;5011004;28;20438;-69
2024/01/24 12:53:20;;;;;;;81.43;76.65;;;;;;;;;;5008885;28;20435;-70
2024/01/24 12:55:47;;;;;;;92.70;87.10;;;;;;;;;;4998234;28;20747;-69
2024/01/24 12:58:17;;;;;;;88.07;82.63;;;;;;;;;;5000904;28;20435;-69
2024/01/24 13:00:46;;;;;;;97.13;91.25;;;;;;;;;;5020529;28;20433;-70
2024/01/24 13:03:13;;;;;;;114.78;108.15;;;;;;;;;;4996095;28;20429;-69
2024/01/24 13:05:43;;;;;;;92.15;86.78;;;;;;;;;;4990961;28;20517;-69
2024/01/24 13:08:17;;;;;;;90.93;84.50;;;;;;;;;;4996281;28;20437;-70
2024/01/24 13:10:47;;;;;;;77.53;72.40;;;;;;;;;;4993661;28;20443;-69
2024/01/24 13:13:16;;;;;;;77.78;72.72;;;;;;;;;;4999378;28;20434;-69
2024/01/24 13:15:44;;;;;;;87.18;80.28;;;;;;;;;;4997044;28;20428;-68
2024/01/24 13:18:12;;;;;;;83.95;78.35;;;;;;;;;;4991513;28;20463;-69
2024/01/24 13:20:39;;;;;;;75.07;70.28;;;;;;;;;;5019862;28;21000;-68
2024/01/24 13:23:07;;;;;;;88.13;82.60;;;;;;;;;;4994022;28;20451;-69
2024/01/24 13:25:34;;;;;;;66.63;62.15;;;;;;;;;;5000927;28;21261;-70
2024/01/24 13:28:02;;;;;;;83.20;77.77;;;;;;;;;;4998503;28;20440;-69
2024/01/24 13:30:31;;;;;;;76.35;71.50;;;;;;;;;;4993297;28;20524;-69
2024/01/24 13:32:58;;;;;;;96.78;91.13;;;;;;;;;;5000728;28;20439;-69
2024/01/24 13:35:29;;;;;;;107.82;101.40;;;;;;;;;;4997549;28;20431;-69
2024/01/24 13:37:58;;;;;;;103.88;97.80;;;;;;;;;;4988884;28;20445;-70
2024/01/24 13:40:28;;;;;;;97.50;91.60;;;;;;;;;;4996128;28;20437;-69
2024/01/24 13:42:55;;;;;;;85.17;80.13;;;;;;;;;;4988975;28;20437;-69
2024/01/24 13:45:23;;;;;;;78.45;73.70;;;;;;;;;;5002804;28;20439;-69
2024/01/24 13:47:51;;;;;;;83.03;78.00;;;;;;;;;;4991545;28;20493;-70
2024/01/24 13:50:18;;;;;;;90.07;84.68;;;;;;;;;;4998584;28;20436;-69
2024/01/24 13:52:45;;;;;;;76.00;71.22;;;;;;;;;;4994982;28;20450;-69
2024/01/24 13:55:12;;;;;;;106.40;99.67;;;;;;;;;;5002186;28;20599;-69
2024/01/24 13:57:41;;;;;;;114.50;107.50;;;;;;;;;;4997775;28;20450;-69
2024/01/24 14:00:13;;;;;;;111.63;105.30;;;;;;;;;;4999345;28;20440;-69
2024/01/24 14:02:42;;;;;;;95.80;90.00;;;;;;;;;;5022099;28;20441;-69
2024/01/24 14:05:11;;;;;;;104.47;98.30;;;;;;;;;;4987513;28;20510;-69
2024/01/24 14:07:42;;;;;;;109.28;102.75;;;;;;;;;;5002116;28;20432;-69
2024/01/24 14:10:10;;;;;;;102.07;95.38;;;;;;;;;;5001080;28;20441;-69
2024/01/24 14:12:38;;;;;;;106.10;99.63;;;;;;;;;;4997707;28;20438;-69
2024/01/24 14:15:06;;;;;;;105.55;98.70;;;;;;;;;;5012579;28;20473;-69
2024/01/24 14:17:49;;;;;;;108.10;101.85;;;;;;;;;;5001326;28;20498;-69
2024/01/24 14:20:17;;;;;;;93.22;87.47;;;;;;;;;;5024703;28;20437;-69